Flight Track Log - Related Links

Times and Time Zones

All times are in EST time to prevent confusion due to time zone crossing. See the CXA8231 flight status page for this flight to view local times or setup timezone preferences in your user account.


Time Position Orientation Groundspeed Altitude Reporting Facility
EST Latitude Longitude Course Direction KTS MPH feet Rate Location/Type
Thu 08:14:00 PM 31.2452 119.9714 339° North  Level Estimated
Thu 08:15:00 PM 31.3376 119.9290 339° North  Level Estimated
Thu 08:16:00 PM 31.4299 119.8866 339° North  Level Estimated
Thu 08:17:00 PM 31.5223 119.8441 339° North  Level Estimated
Thu 08:18:00 PM 31.6146 119.8015 339° North  Level Estimated
Thu 08:19:00 PM 31.7069 119.7588 339° North  Level Estimated
Thu 08:20:00 PM 31.7992 119.7161 339° North  Level Estimated
Thu 08:21:00 PM 31.8915 119.6732 338° Northwest  Level Estimated
Thu 08:22:00 PM 31.9837 119.6303 338° Northwest  Level Estimated
Thu 08:23:00 PM 32.0760 119.5873 338° Northwest  Level Estimated
Thu 08:24:00 PM 32.1682 119.5442 338° Northwest  Level Estimated
Thu 08:25:00 PM 32.2604 119.5010 338° Northwest  Level Estimated
Thu 08:26:00 PM 32.3527 119.4577 338° Northwest  Level Estimated
Thu 08:27:00 PM 32.4449 119.4144 338° Northwest  Level Estimated
Thu 08:28:00 PM 32.5370 119.3709 338° Northwest  Level Estimated
Thu 08:29:00 PM 32.6292 119.3274 338° Northwest  Level Estimated
Thu 08:30:00 PM 32.7213 119.2838 338° Northwest  Level Estimated
Thu 08:31:00 PM 32.8135 119.2400 338° Northwest  Level Estimated
Thu 08:32:00 PM 32.9056 119.1962 338° Northwest  Level Estimated
Thu 08:33:00 PM 32.9977 119.1523 338° Northwest  Level Estimated
Thu 08:34:00 PM 33.0898 119.1083 338° Northwest  Level Estimated
Thu 08:35:00 PM 33.1818 119.0642 338° Northwest  Level Estimated
Thu 08:36:00 PM 33.2739 119.0201 338° Northwest  Level Estimated
Thu 08:37:00 PM 33.3659 118.9758 338° Northwest  Level Estimated
Thu 08:38:00 PM 33.4580 118.9314 338° Northwest  Level Estimated
Thu 08:39:00 PM 33.5500 118.8869 338° Northwest  Level Estimated
Thu 08:40:00 PM 33.6419 118.8424 338° Northwest  Level Estimated
Thu 08:41:00 PM 33.7339 118.7978 338° Northwest  Level Estimated
Thu 08:42:00 PM 33.8259 118.7530 338° Northwest  Level Estimated
Thu 08:43:00 PM 33.9178 118.7082 338° Northwest  Level Estimated
Thu 08:44:00 PM 34.0098 118.6632 338° Northwest  Level Estimated
Thu 08:45:00 PM 34.1017 118.6182 338° Northwest  Level Estimated
Thu 08:46:00 PM 34.1936 118.5730 338° Northwest  Level Estimated
Thu 08:47:00 PM 34.2854 118.5278 338° Northwest  Level Estimated
Thu 08:48:00 PM 34.3773 118.4825 338° Northwest  Level Estimated
Thu 08:49:00 PM 34.4691 118.4370 338° Northwest  Level Estimated
Thu 08:50:00 PM 34.5610 118.3915 338° Northwest  Level Estimated
Thu 08:51:00 PM 34.6528 118.3459 338° Northwest  Level Estimated
Thu 08:52:00 PM 34.7446 118.3001 338° Northwest  Level Estimated
Thu 08:53:00 PM 34.8363 118.2543 338° Northwest  Level Estimated
Thu 08:54:00 PM 34.9281 118.2084 338° Northwest  Level Estimated
Thu 08:55:00 PM 35.0199 118.1623 338° Northwest  Level Estimated
Thu 08:56:00 PM 35.1116 118.1162 338° Northwest  Level Estimated
Thu 08:57:00 PM 35.2033 118.0699 338° Northwest  Level Estimated
Thu 08:58:00 PM 35.2950 118.0236 338° Northwest  Level Estimated
Thu 08:59:00 PM 35.3866 117.9771 338° Northwest  Level Estimated
Thu 09:00:00 PM 35.4783 117.9305 338° Northwest  Level Estimated
Thu 09:01:00 PM 35.5699 117.8839 337° Northwest  Level Estimated
Thu 09:02:00 PM 35.6615 117.8371 337° Northwest  Level Estimated
Thu 09:03:00 PM 35.7531 117.7902 337° Northwest  Level Estimated
Thu 09:04:00 PM 35.8447 117.7432 337° Northwest  Level Estimated
Thu 09:05:00 PM 35.9363 117.6961 337° Northwest  Level Estimated
Thu 09:06:00 PM 36.0278 117.6489 337° Northwest  Level Estimated
Thu 09:07:00 PM 36.1194 117.6016 337° Northwest  Level Estimated
Thu 09:08:00 PM 36.2109 117.5542 337° Northwest  Level Estimated
Thu 09:09:00 PM 36.3023 117.5066 337° Northwest  Level Estimated
Thu 09:10:00 PM 36.3938 117.4590 337° Northwest  Level Estimated
Thu 09:11:00 PM 36.4853 117.4112 337° Northwest  Level Estimated
Thu 09:12:00 PM 36.5767 117.3633 337° Northwest  Level Estimated
Thu 09:13:00 PM 36.6681 117.3153 337° Northwest  Level Estimated
Thu 09:14:00 PM 36.7595 117.2672 337° Northwest  Level Estimated
Thu 09:15:00 PM 36.8509 117.2190 337° Northwest  Level Estimated
Thu 09:16:00 PM 36.8566 117.2160 337° Northwest  Level Estimated
Thu 09:17:00 PM 36.8566 117.2160 North  Level Estimated
Thu 09:18:00 PM 36.8566 117.2160 North  Level Estimated
Thu 09:19:00 PM 36.8566 117.2160 North  Level Estimated
Thu 09:20:00 PM 36.8566 117.2160 North  Level Estimated
Thu 09:21:00 PM 36.8566 117.2160 North  Level Estimated
Thu 09:22:00 PM 36.8566 117.2160 North  Level Estimated
Thu 09:23:00 PM 36.8566 117.2160 North  Level Estimated
Thu 09:24:00 PM 36.8566 117.2160 North  Level Estimated
Thu 09:25:00 PM 36.8566 117.2160 North  Level Estimated
Thu 09:26:00 PM 36.8566 117.2160 North  Level Estimated
Thu 09:27:00 PM 36.8566 117.2160 North  Level Estimated
Thu 09:28:00 PM 36.8566 117.2160 North  Level Estimated
Thu 09:29:00 PM 36.8566 117.2160 North  Level Estimated
Thu 09:30:00 PM 36.8566 117.2160 North  Level Estimated
Thu 09:31:00 PM 36.8566 117.2160 North  Level Estimated

Login

Don't have an account? Register now (free) for customized features, flight alerts, and more!